sensor_id;sensor_type;location;lat;lon;timestamp;temperature;humidity
28087;DHT22;15392;48.912;8.380;2022-07-23T00:00:19;30.40;38.00
28087;DHT22;15392;48.912;8.380;2022-07-23T00:02:46;30.40;38.00
28087;DHT22;15392;48.912;8.380;2022-07-23T00:05:11;30.40;37.90
28087;DHT22;15392;48.912;8.380;2022-07-23T00:07:38;30.40;37.80
28087;DHT22;15392;48.912;8.380;2022-07-23T00:10:04;30.30;38.20
28087;DHT22;15392;48.912;8.380;2022-07-23T00:12:31;30.30;37.50
28087;DHT22;15392;48.912;8.380;2022-07-23T00:14:56;30.30;37.40
28087;DHT22;15392;48.912;8.380;2022-07-23T00:17:22;30.30;37.50
28087;DHT22;15392;48.912;8.380;2022-07-23T00:19:48;30.30;37.40
28087;DHT22;15392;48.912;8.380;2022-07-23T00:22:14;30.30;37.30
28087;DHT22;15392;48.912;8.380;2022-07-23T00:24:40;30.20;37.20
28087;DHT22;15392;48.912;8.380;2022-07-23T00:27:05;30.20;37.20
28087;DHT22;15392;48.912;8.380;2022-07-23T00:29:31;30.20;37.20
28087;DHT22;15392;48.912;8.380;2022-07-23T00:31:57;30.20;37.20
28087;DHT22;15392;48.912;8.380;2022-07-23T00:34:23;30.20;37.20
28087;DHT22;15392;48.912;8.380;2022-07-23T00:36:48;30.20;37.10
28087;DHT22;15392;48.912;8.380;2022-07-23T00:39:14;30.20;37.20
28087;DHT22;15392;48.912;8.380;2022-07-23T00:41:40;30.20;37.20
28087;DHT22;15392;48.912;8.380;2022-07-23T00:44:20;30.20;37.20
28087;DHT22;15392;48.912;8.380;2022-07-23T00:46:53;30.10;37.30
28087;DHT22;15392;48.912;8.380;2022-07-23T00:49:22;30.10;37.10
28087;DHT22;15392;48.912;8.380;2022-07-23T00:51:49;30.10;37.00
28087;DHT22;15392;48.912;8.380;2022-07-23T00:54:16;30.10;37.00
28087;DHT22;15392;48.912;8.380;2022-07-23T00:56:44;30.00;36.80
28087;DHT22;15392;48.912;8.380;2022-07-23T00:59:10;30.00;36.80
28087;DHT22;15392;48.912;8.380;2022-07-23T01:01:36;30.00;36.80
28087;DHT22;15392;48.912;8.380;2022-07-23T01:04:03;29.90;36.80
28087;DHT22;15392;48.912;8.380;2022-07-23T01:06:29;29.90;36.70
28087;DHT22;15392;48.912;8.380;2022-07-23T01:08:57;29.90;36.70
28087;DHT22;15392;48.912;8.380;2022-07-23T01:11:23;29.90;36.60
28087;DHT22;15392;48.912;8.380;2022-07-23T01:13:50;29.90;36.60
28087;DHT22;15392;48.912;8.380;2022-07-23T01:16:15;29.80;36.50
28087;DHT22;15392;48.912;8.380;2022-07-23T01:18:41;29.80;36.50
28087;DHT22;15392;48.912;8.380;2022-07-23T01:21:10;29.80;36.50
28087;DHT22;15392;48.912;8.380;2022-07-23T01:23:38;29.80;36.60
28087;DHT22;15392;48.912;8.380;2022-07-23T01:26:04;29.70;36.40
28087;DHT22;15392;48.912;8.380;2022-07-23T01:28:30;29.70;36.40
28087;DHT22;15392;48.912;8.380;2022-07-23T01:30:56;29.70;36.40
28087;DHT22;15392;48.912;8.380;2022-07-23T01:33:22;29.60;36.50
28087;DHT22;15392;48.912;8.380;2022-07-23T01:35:47;29.60;36.50
28087;DHT22;15392;48.912;8.380;2022-07-23T01:38:19;29.60;36.50
28087;DHT22;15392;48.912;8.380;2022-07-23T01:40:44;29.60;36.50
28087;DHT22;15392;48.912;8.380;2022-07-23T01:43:10;29.50;36.40
28087;DHT22;15392;48.912;8.380;2022-07-23T01:45:36;29.50;36.40
28087;DHT22;15392;48.912;8.380;2022-07-23T01:48:02;29.50;36.40
28087;DHT22;15392;48.912;8.380;2022-07-23T01:50:27;29.50;36.40
28087;DHT22;15392;48.912;8.380;2022-07-23T01:52:53;29.40;36.40
28087;DHT22;15392;48.912;8.380;2022-07-23T01:55:19;29.40;36.40
28087;DHT22;15392;48.912;8.380;2022-07-23T01:57:49;29.40;36.40
28087;DHT22;15392;48.912;8.380;2022-07-23T02:00:14;29.30;36.40
28087;DHT22;15392;48.912;8.380;2022-07-23T02:02:40;29.30;36.50
28087;DHT22;15392;48.912;8.380;2022-07-23T02:05:06;29.30;36.40
28087;DHT22;15392;48.912;8.380;2022-07-23T02:07:33;29.30;36.50
28087;DHT22;15392;48.912;8.380;2022-07-23T02:09:58;29.20;36.40
28087;DHT22;15392;48.912;8.380;2022-07-23T02:12:24;29.10;36.40
28087;DHT22;15392;48.912;8.380;2022-07-23T02:14:50;29.10;37.10
28087;DHT22;15392;48.912;8.380;2022-07-23T02:17:16;29.10;36.40
28087;DHT22;15392;48.912;8.380;2022-07-23T02:19:42;29.00;36.40
28087;DHT22;15392;48.912;8.380;2022-07-23T02:22:07;29.00;36.40
28087;DHT22;15392;48.912;8.380;2022-07-23T02:24:33;28.90;36.40
28087;DHT22;15392;48.912;8.380;2022-07-23T02:26:59;28.90;36.60
28087;DHT22;15392;48.912;8.380;2022-07-23T02:29:25;28.90;36.60
28087;DHT22;15392;48.912;8.380;2022-07-23T02:31:51;28.90;36.60
28087;DHT22;15392;48.912;8.380;2022-07-23T02:34:16;28.80;36.60
28087;DHT22;15392;48.912;8.380;2022-07-23T02:36:42;28.80;36.70
28087;DHT22;15392;48.912;8.380;2022-07-23T02:39:08;28.80;36.70
28087;DHT22;15392;48.912;8.380;2022-07-23T02:41:34;28.80;36.70
28087;DHT22;15392;48.912;8.380;2022-07-23T02:44:00;28.80;36.60
28087;DHT22;15392;48.912;8.380;2022-07-23T02:46:26;28.80;36.70
28087;DHT22;15392;48.912;8.380;2022-07-23T02:48:52;28.80;36.80
28087;DHT22;15392;48.912;8.380;2022-07-23T02:51:17;28.80;37.00
28087;DHT22;15392;48.912;8.380;2022-07-23T02:53:43;28.70;36.80
28087;DHT22;15392;48.912;8.380;2022-07-23T02:56:09;28.70;36.90
28087;DHT22;15392;48.912;8.380;2022-07-23T02:58:35;28.70;37.00
28087;DHT22;15392;48.912;8.380;2022-07-23T03:01:01;28.70;37.10
28087;DHT22;15392;48.912;8.380;2022-07-23T03:03:27;28.70;37.20
28087;DHT22;15392;48.912;8.380;2022-07-23T03:05:53;28.70;37.20
28087;DHT22;15392;48.912;8.380;2022-07-23T03:08:19;28.70;37.20
28087;DHT22;15392;48.912;8.380;2022-07-23T03:10:45;28.70;37.20
28087;DHT22;15392;48.912;8.380;2022-07-23T03:13:10;28.70;37.20
28087;DHT22;15392;48.912;8.380;2022-07-23T03:15:36;28.70;37.30
28087;DHT22;15392;48.912;8.380;2022-07-23T03:18:02;28.60;37.20
28087;DHT22;15392;48.912;8.380;2022-07-23T03:20:28;28.60;37.30
28087;DHT22;15392;48.912;8.380;2022-07-23T03:22:53;28.60;37.40
28087;DHT22;15392;48.912;8.380;2022-07-23T03:25:19;28.50;37.40
28087;DHT22;15392;48.912;8.380;2022-07-23T03:27:45;28.60;37.50
28087;DHT22;15392;48.912;8.380;2022-07-23T03:30:11;28.50;37.50
28087;DHT22;15392;48.912;8.380;2022-07-23T03:32:37;28.50;37.50
28087;DHT22;15392;48.912;8.380;2022-07-23T03:35:04;28.50;37.60
28087;DHT22;15392;48.912;8.380;2022-07-23T03:37:30;28.40;37.60
28087;DHT22;15392;48.912;8.380;2022-07-23T03:39:56;28.40;37.70
28087;DHT22;15392;48.912;8.380;2022-07-23T03:42:21;28.40;37.70
28087;DHT22;15392;48.912;8.380;2022-07-23T03:44:47;28.30;37.80
28087;DHT22;15392;48.912;8.380;2022-07-23T03:47:13;28.30;37.90
28087;DHT22;15392;48.912;8.380;2022-07-23T03:49:39;28.30;37.90
28087;DHT22;15392;48.912;8.380;2022-07-23T03:52:05;28.20;38.00
28087;DHT22;15392;48.912;8.380;2022-07-23T03:54:31;28.20;38.00
28087;DHT22;15392;48.912;8.380;2022-07-23T03:56:57;28.20;37.90
28087;DHT22;15392;48.912;8.380;2022-07-23T03:59:22;28.10;37.90
28087;DHT22;15392;48.912;8.380;2022-07-23T04:01:48;28.10;37.90
28087;DHT22;15392;48.912;8.380;2022-07-23T04:04:14;28.00;38.10
28087;DHT22;15392;48.912;8.380;2022-07-23T04:06:40;27.90;38.10
28087;DHT22;15392;48.912;8.380;2022-07-23T04:09:05;28.00;38.20
28087;DHT22;15392;48.912;8.380;2022-07-23T04:11:31;27.90;38.30
28087;DHT22;15392;48.912;8.380;2022-07-23T04:13:57;27.90;38.40
28087;DHT22;15392;48.912;8.380;2022-07-23T04:16:23;27.90;38.40
28087;DHT22;15392;48.912;8.380;2022-07-23T04:18:48;27.90;38.40
28087;DHT22;15392;48.912;8.380;2022-07-23T04:21:14;27.90;38.50
28087;DHT22;15392;48.912;8.380;2022-07-23T04:23:40;27.90;38.50
28087;DHT22;15392;48.912;8.380;2022-07-23T04:26:06;27.90;38.40
28087;DHT22;15392;48.912;8.380;2022-07-23T04:28:31;27.90;38.50
28087;DHT22;15392;48.912;8.380;2022-07-23T04:30:58;27.90;38.50
28087;DHT22;15392;48.912;8.380;2022-07-23T04:33:24;27.90;38.40
28087;DHT22;15392;48.912;8.380;2022-07-23T04:35:50;27.90;38.40
28087;DHT22;15392;48.912;8.380;2022-07-23T04:38:16;27.90;38.50
28087;DHT22;15392;48.912;8.380;2022-07-23T04:40:42;27.80;38.60
28087;DHT22;15392;48.912;8.380;2022-07-23T04:43:07;27.80;38.50
28087;DHT22;15392;48.912;8.380;2022-07-23T04:45:33;27.80;38.60
28087;DHT22;15392;48.912;8.380;2022-07-23T04:47:59;27.80;38.80
28087;DHT22;15392;48.912;8.380;2022-07-23T04:50:25;27.80;38.80
28087;DHT22;15392;48.912;8.380;2022-07-23T04:52:51;27.80;38.80
28087;DHT22;15392;48.912;8.380;2022-07-23T04:55:16;27.80;39.40
28087;DHT22;15392;48.912;8.380;2022-07-23T04:57:47;27.80;38.90
28087;DHT22;15392;48.912;8.380;2022-07-23T05:00:13;27.80;38.90
28087;DHT22;15392;48.912;8.380;2022-07-23T05:02:39;27.80;38.80
28087;DHT22;15392;48.912;8.380;2022-07-23T05:05:05;27.80;38.90
28087;DHT22;15392;48.912;8.380;2022-07-23T05:07:32;27.70;38.90
28087;DHT22;15392;48.912;8.380;2022-07-23T05:09:57;27.70;38.90
28087;DHT22;15392;48.912;8.380;2022-07-23T05:12:23;27.70;38.90
28087;DHT22;15392;48.912;8.380;2022-07-23T05:14:49;27.70;38.90
28087;DHT22;15392;48.912;8.380;2022-07-23T05:17:15;27.70;39.00
28087;DHT22;15392;48.912;8.380;2022-07-23T05:19:41;27.70;39.00
28087;DHT22;15392;48.912;8.380;2022-07-23T05:22:07;27.70;39.10
28087;DHT22;15392;48.912;8.380;2022-07-23T05:24:32;27.70;39.20
28087;DHT22;15392;48.912;8.380;2022-07-23T05:26:58;27.70;39.30
28087;DHT22;15392;48.912;8.380;2022-07-23T05:29:24;27.70;39.40
28087;DHT22;15392;48.912;8.380;2022-07-23T05:31:50;27.70;39.50
28087;DHT22;15392;48.912;8.380;2022-07-23T05:34:16;27.70;39.60
28087;DHT22;15392;48.912;8.380;2022-07-23T05:36:42;27.80;39.90
28087;DHT22;15392;48.912;8.380;2022-07-23T05:39:08;27.80;39.90
28087;DHT22;15392;48.912;8.380;2022-07-23T05:41:33;27.80;39.90
28087;DHT22;15392;48.912;8.380;2022-07-23T05:43:59;27.80;40.00
28087;DHT22;15392;48.912;8.380;2022-07-23T05:46:25;27.80;40.20
28087;DHT22;15392;48.912;8.380;2022-07-23T05:48:51;27.80;40.10
28087;DHT22;15392;48.912;8.380;2022-07-23T05:51:23;27.80;40.30
28087;DHT22;15392;48.912;8.380;2022-07-23T05:53:49;27.80;40.90
28087;DHT22;15392;48.912;8.380;2022-07-23T05:56:18;27.80;40.30
28087;DHT22;15392;48.912;8.380;2022-07-23T05:58:44;27.80;40.20
28087;DHT22;15392;48.912;8.380;2022-07-23T06:01:10;27.90;40.30
28087;DHT22;15392;48.912;8.380;2022-07-23T06:03:38;27.80;40.20
28087;DHT22;15392;48.912;8.380;2022-07-23T06:06:05;27.80;40.50
28087;DHT22;15392;48.912;8.380;2022-07-23T06:08:32;27.80;40.80
28087;DHT22;15392;48.912;8.380;2022-07-23T06:10:58;27.80;41.10
28087;DHT22;15392;48.912;8.380;2022-07-23T06:13:24;27.70;41.30
28087;DHT22;15392;48.912;8.380;2022-07-23T06:15:49;27.70;41.30
28087;DHT22;15392;48.912;8.380;2022-07-23T06:18:16;27.60;41.20
28087;DHT22;15392;48.912;8.380;2022-07-23T06:20:41;27.50;42.00
28087;DHT22;15392;48.912;8.380;2022-07-23T06:23:07;27.50;42.10
28087;DHT22;15392;48.912;8.380;2022-07-23T06:25:33;27.30;42.10
28087;DHT22;15392;48.912;8.380;2022-07-23T06:27:59;27.30;42.40
28087;DHT22;15392;48.912;8.380;2022-07-23T06:30:25;27.10;42.30
28087;DHT22;15392;48.912;8.380;2022-07-23T06:32:51;27.10;42.60
28087;DHT22;15392;48.912;8.380;2022-07-23T06:35:17;26.90;43.00
28087;DHT22;15392;48.912;8.380;2022-07-23T06:37:43;26.90;42.90
28087;DHT22;15392;48.912;8.380;2022-07-23T06:40:09;26.90;43.40
28087;DHT22;15392;48.912;8.380;2022-07-23T06:42:35;26.80;43.90
28087;DHT22;15392;48.912;8.380;2022-07-23T06:45:06;26.80;43.90
28087;DHT22;15392;48.912;8.380;2022-07-23T06:47:32;26.80;43.80
28087;DHT22;15392;48.912;8.380;2022-07-23T06:49:58;26.80;44.30
28087;DHT22;15392;48.912;8.380;2022-07-23T06:52:24;26.80;44.50
28087;DHT22;15392;48.912;8.380;2022-07-23T06:54:52;26.80;44.30
28087;DHT22;15392;48.912;8.380;2022-07-23T06:57:21;26.80;44.40
28087;DHT22;15392;48.912;8.380;2022-07-23T06:59:47;26.80;44.10
28087;DHT22;15392;48.912;8.380;2022-07-23T07:02:12;26.70;44.40
28087;DHT22;15392;48.912;8.380;2022-07-23T07:04:38;26.70;44.70
28087;DHT22;15392;48.912;8.380;2022-07-23T07:07:04;26.70;44.80
28087;DHT22;15392;48.912;8.380;2022-07-23T07:09:30;26.70;45.00
28087;DHT22;15392;48.912;8.380;2022-07-23T07:11:56;26.70;45.00
28087;DHT22;15392;48.912;8.380;2022-07-23T07:14:22;26.70;44.90
28087;DHT22;15392;48.912;8.380;2022-07-23T07:16:47;26.70;45.20
28087;DHT22;15392;48.912;8.380;2022-07-23T07:19:16;26.70;45.00
28087;DHT22;15392;48.912;8.380;2022-07-23T07:21:42;26.60;45.10
28087;DHT22;15392;48.912;8.380;2022-07-23T07:24:08;26.60;45.40
28087;DHT22;15392;48.912;8.380;2022-07-23T07:26:35;26.60;45.40
28087;DHT22;15392;48.912;8.380;2022-07-23T07:29:01;26.60;45.50
28087;DHT22;15392;48.912;8.380;2022-07-23T07:31:27;26.60;45.50
28087;DHT22;15392;48.912;8.380;2022-07-23T07:33:53;26.60;45.50
28087;DHT22;15392;48.912;8.380;2022-07-23T07:36:19;26.60;45.40
28087;DHT22;15392;48.912;8.380;2022-07-23T07:38:44;26.60;45.50
28087;DHT22;15392;48.912;8.380;2022-07-23T07:41:10;26.70;45.50
28087;DHT22;15392;48.912;8.380;2022-07-23T07:43:37;26.60;45.40
28087;DHT22;15392;48.912;8.380;2022-07-23T07:46:04;26.60;45.20
28087;DHT22;15392;48.912;8.380;2022-07-23T07:48:39;26.60;45.30
28087;DHT22;15392;48.912;8.380;2022-07-23T07:51:05;26.60;45.50
28087;DHT22;15392;48.912;8.380;2022-07-23T07:53:31;26.60;45.20
28087;DHT22;15392;48.912;8.380;2022-07-23T07:55:57;26.60;45.30
28087;DHT22;15392;48.912;8.380;2022-07-23T07:58:22;26.50;45.40
28087;DHT22;15392;48.912;8.380;2022-07-23T08:00:48;26.50;45.70
28087;DHT22;15392;48.912;8.380;2022-07-23T08:03:14;26.50;45.90
28087;DHT22;15392;48.912;8.380;2022-07-23T08:05:40;26.50;46.10
28087;DHT22;15392;48.912;8.380;2022-07-23T08:08:06;26.50;46.20
28087;DHT22;15392;48.912;8.380;2022-07-23T08:10:32;26.50;45.60
28087;DHT22;15392;48.912;8.380;2022-07-23T08:12:58;26.50;45.20
28087;DHT22;15392;48.912;8.380;2022-07-23T08:15:27;26.60;45.50
28087;DHT22;15392;48.912;8.380;2022-07-23T08:17:54;26.60;45.60
28087;DHT22;15392;48.912;8.380;2022-07-23T08:20:22;26.60;46.00
28087;DHT22;15392;48.912;8.380;2022-07-23T08:23:06;26.70;46.10
28087;DHT22;15392;48.912;8.380;2022-07-23T08:25:41;26.70;47.80
28087;DHT22;15392;48.912;8.380;2022-07-23T08:28:14;26.70;46.90
28087;DHT22;15392;48.912;8.380;2022-07-23T08:30:42;26.70;45.90
28087;DHT22;15392;48.912;8.380;2022-07-23T08:33:14;26.80;46.90
28087;DHT22;15392;48.912;8.380;2022-07-23T08:35:43;26.90;47.00
28087;DHT22;15392;48.912;8.380;2022-07-23T08:38:16;26.90;46.30
28087;DHT22;15392;48.912;8.380;2022-07-23T08:40:45;27.00;46.50
28087;DHT22;15392;48.912;8.380;2022-07-23T08:43:15;27.10;45.90
28087;DHT22;15392;48.912;8.380;2022-07-23T08:45:49;27.10;45.90
28087;DHT22;15392;48.912;8.380;2022-07-23T08:48:18;27.20;46.00
28087;DHT22;15392;48.912;8.380;2022-07-23T08:50:51;27.30;45.90
28087;DHT22;15392;48.912;8.380;2022-07-23T08:53:20;27.30;46.50
28087;DHT22;15392;48.912;8.380;2022-07-23T08:55:47;27.40;45.70
28087;DHT22;15392;48.912;8.380;2022-07-23T08:58:14;27.40;45.90
28087;DHT22;15392;48.912;8.380;2022-07-23T09:00:41;27.50;45.40
28087;DHT22;15392;48.912;8.380;2022-07-23T09:03:16;27.50;45.10
28087;DHT22;15392;48.912;8.380;2022-07-23T09:05:43;27.60;46.00
28087;DHT22;15392;48.912;8.380;2022-07-23T09:10:48;27.80;45.40
28087;DHT22;15392;48.912;8.380;2022-07-23T09:18:41;28.00;45.80
28087;DHT22;15392;48.912;8.380;2022-07-23T09:24:02;28.10;46.60
28087;DHT22;15392;48.912;8.380;2022-07-23T09:26:45;28.20;45.30
28087;DHT22;15392;48.912;8.380;2022-07-23T09:29:23;28.20;45.10
28087;DHT22;15392;48.912;8.380;2022-07-23T09:31:58;28.30;46.10
28087;DHT22;15392;48.912;8.380;2022-07-23T09:34:27;28.30;45.00
28087;DHT22;15392;48.912;8.380;2022-07-23T09:36:55;28.40;45.00
28087;DHT22;15392;48.912;8.380;2022-07-23T09:39:35;28.50;45.00
28087;DHT22;15392;48.912;8.380;2022-07-23T09:44:49;28.60;44.90
28087;DHT22;15392;48.912;8.380;2022-07-23T09:47:17;28.60;44.00
28087;DHT22;15392;48.912;8.380;2022-07-23T09:49:59;28.70;43.70
28087;DHT22;15392;48.912;8.380;2022-07-23T09:52:35;28.70;44.40
28087;DHT22;15392;48.912;8.380;2022-07-23T09:55:05;28.80;43.80
28087;DHT22;15392;48.912;8.380;2022-07-23T09:57:32;28.80;43.60
28087;DHT22;15392;48.912;8.380;2022-07-23T10:00:03;28.90;43.50
28087;DHT22;15392;48.912;8.380;2022-07-23T10:02:34;28.90;43.60
28087;DHT22;15392;48.912;8.380;2022-07-23T10:05:06;29.00;43.60
28087;DHT22;15392;48.912;8.380;2022-07-23T10:07:37;29.00;43.50
28087;DHT22;15392;48.912;8.380;2022-07-23T10:10:06;29.10;43.50
28087;DHT22;15392;48.912;8.380;2022-07-23T10:12:32;29.10;43.00
28087;DHT22;15392;48.912;8.380;2022-07-23T10:14:59;29.20;43.00
28087;DHT22;15392;48.912;8.380;2022-07-23T10:17:27;29.20;42.80
28087;DHT22;15392;48.912;8.380;2022-07-23T10:19:53;29.30;42.60
28087;DHT22;15392;48.912;8.380;2022-07-23T10:22:22;29.30;42.60
28087;DHT22;15392;48.912;8.380;2022-07-23T10:28:19;29.40;43.20
28087;DHT22;15392;48.912;8.380;2022-07-23T10:34:12;29.60;43.40
28087;DHT22;15392;48.912;8.380;2022-07-23T10:36:53;29.60;43.00
28087;DHT22;15392;48.912;8.380;2022-07-23T10:39:30;29.70;42.70
28087;DHT22;15392;48.912;8.380;2022-07-23T10:44:43;29.80;42.50
28087;DHT22;15392;48.912;8.380;2022-07-23T10:47:10;29.80;42.00
28087;DHT22;15392;48.912;8.380;2022-07-23T10:49:43;29.80;42.00
28087;DHT22;15392;48.912;8.380;2022-07-23T10:52:15;29.90;41.90
28087;DHT22;15392;48.912;8.380;2022-07-23T10:54:47;30.00;42.10
28087;DHT22;15392;48.912;8.380;2022-07-23T10:57:25;30.00;41.90
28087;DHT22;15392;48.912;8.380;2022-07-23T11:02:29;30.20;42.60
28087;DHT22;15392;48.912;8.380;2022-07-23T11:05:01;30.20;41.50
28087;DHT22;15392;48.912;8.380;2022-07-23T11:07:26;30.20;41.10
28087;DHT22;15392;48.912;8.380;2022-07-23T11:09:53;30.30;41.10
28087;DHT22;15392;48.912;8.380;2022-07-23T11:15:07;30.40;41.20
28087;DHT22;15392;48.912;8.380;2022-07-23T11:17:59;30.40;41.30
28087;DHT22;15392;48.912;8.380;2022-07-23T11:20:25;30.50;41.10
28087;DHT22;15392;48.912;8.380;2022-07-23T11:22:58;30.50;41.00
28087;DHT22;15392;48.912;8.380;2022-07-23T11:25:29;30.60;40.90
28087;DHT22;15392;48.912;8.380;2022-07-23T11:28:17;30.60;41.00
28087;DHT22;15392;48.912;8.380;2022-07-23T11:30:46;30.70;41.00
28087;DHT22;15392;48.912;8.380;2022-07-23T11:35:41;30.80;40.50
28087;DHT22;15392;48.912;8.380;2022-07-23T11:40:41;30.90;40.50
28087;DHT22;15392;48.912;8.380;2022-07-23T11:43:10;31.00;40.30
28087;DHT22;15392;48.912;8.380;2022-07-23T11:45:39;31.00;40.40
28087;DHT22;15392;48.912;8.380;2022-07-23T11:48:09;31.00;40.40
28087;DHT22;15392;48.912;8.380;2022-07-23T11:50:43;31.10;40.10
28087;DHT22;15392;48.912;8.380;2022-07-23T11:53:09;31.20;40.30
28087;DHT22;15392;48.912;8.380;2022-07-23T11:55:35;31.30;40.30
28087;DHT22;15392;48.912;8.380;2022-07-23T11:58:01;31.30;40.00
28087;DHT22;15392;48.912;8.380;2022-07-23T12:00:29;31.40;40.00
28087;DHT22;15392;48.912;8.380;2022-07-23T12:02:58;31.40;39.80
28087;DHT22;15392;48.912;8.380;2022-07-23T12:05:30;31.50;39.40
28087;DHT22;15392;48.912;8.380;2022-07-23T12:08:00;31.60;39.20
28087;DHT22;15392;48.912;8.380;2022-07-23T12:13:09;31.60;39.50
28087;DHT22;15392;48.912;8.380;2022-07-23T12:18:14;31.80;39.50
28087;DHT22;15392;48.912;8.380;2022-07-23T12:20:46;31.80;39.30
28087;DHT22;15392;48.912;8.380;2022-07-23T12:23:16;31.90;39.30
28087;DHT22;15392;48.912;8.380;2022-07-23T12:25:46;32.00;39.40
28087;DHT22;15392;48.912;8.380;2022-07-23T12:28:33;32.10;39.40
28087;DHT22;15392;48.912;8.380;2022-07-23T12:30:59;32.20;38.70
28087;DHT22;15392;48.912;8.380;2022-07-23T12:33:37;32.20;38.80
28087;DHT22;15392;48.912;8.380;2022-07-23T12:36:07;32.30;38.50
28087;DHT22;15392;48.912;8.380;2022-07-23T12:38:42;32.30;38.80
28087;DHT22;15392;48.912;8.380;2022-07-23T12:41:14;32.30;38.60
28087;DHT22;15392;48.912;8.380;2022-07-23T12:43:43;32.40;38.80
28087;DHT22;15392;48.912;8.380;2022-07-23T12:46:16;32.40;38.50
28087;DHT22;15392;48.912;8.380;2022-07-23T12:51:18;32.60;38.40
28087;DHT22;15392;48.912;8.380;2022-07-23T12:53:50;32.70;38.60
28087;DHT22;15392;48.912;8.380;2022-07-23T12:56:33;32.80;38.60
28087;DHT22;15392;48.912;8.380;2022-07-23T12:59:19;32.90;38.70
28087;DHT22;15392;48.912;8.380;2022-07-23T13:01:58;33.00;38.40
28087;DHT22;15392;48.912;8.380;2022-07-23T13:04:29;33.20;38.20
28087;DHT22;15392;48.912;8.380;2022-07-23T13:06:58;33.30;37.90
28087;DHT22;15392;48.912;8.380;2022-07-23T13:09:28;33.40;37.80
28087;DHT22;15392;48.912;8.380;2022-07-23T13:11:55;33.40;37.70
28087;DHT22;15392;48.912;8.380;2022-07-23T13:14:24;33.50;37.80
28087;DHT22;15392;48.912;8.380;2022-07-23T13:16:52;33.70;37.70
28087;DHT22;15392;48.912;8.380;2022-07-23T13:19:19;33.70;37.60
28087;DHT22;15392;48.912;8.380;2022-07-23T13:21:49;33.80;37.60
28087;DHT22;15392;48.912;8.380;2022-07-23T13:24:16;33.90;37.50
28087;DHT22;15392;48.912;8.380;2022-07-23T13:26:42;34.00;37.40
28087;DHT22;15392;48.912;8.380;2022-07-23T13:29:08;34.10;37.40
28087;DHT22;15392;48.912;8.380;2022-07-23T13:31:35;34.10;37.40
28087;DHT22;15392;48.912;8.380;2022-07-23T13:34:05;34.20;37.40
28087;DHT22;15392;48.912;8.380;2022-07-23T13:36:35;34.30;37.20
28087;DHT22;15392;48.912;8.380;2022-07-23T13:39:04;34.30;36.90
28087;DHT22;15392;48.912;8.380;2022-07-23T13:41:32;34.30;36.60
28087;DHT22;15392;48.912;8.380;2022-07-23T13:43:59;34.40;36.70
28087;DHT22;15392;48.912;8.380;2022-07-23T13:46:25;34.40;36.70
28087;DHT22;15392;48.912;8.380;2022-07-23T13:48:54;34.40;36.80
28087;DHT22;15392;48.912;8.380;2022-07-23T13:51:20;34.40;36.70
28087;DHT22;15392;48.912;8.380;2022-07-23T13:53:46;34.50;36.70
28087;DHT22;15392;48.912;8.380;2022-07-23T13:56:12;34.50;36.60
28087;DHT22;15392;48.912;8.380;2022-07-23T13:58:38;34.50;37.30
28087;DHT22;15392;48.912;8.380;2022-07-23T14:01:06;34.50;36.70
28087;DHT22;15392;48.912;8.380;2022-07-23T14:03:35;34.50;36.60
28087;DHT22;15392;48.912;8.380;2022-07-23T14:06:01;34.50;36.30
28087;DHT22;15392;48.912;8.380;2022-07-23T14:08:27;34.50;36.40
28087;DHT22;15392;48.912;8.380;2022-07-23T14:10:52;34.50;36.10
28087;DHT22;15392;48.912;8.380;2022-07-23T14:13:18;34.50;36.20
28087;DHT22;15392;48.912;8.380;2022-07-23T14:15:45;34.50;36.10
28087;DHT22;15392;48.912;8.380;2022-07-23T14:18:10;34.50;35.80
28087;DHT22;15392;48.912;8.380;2022-07-23T14:20:36;34.50;35.80
28087;DHT22;15392;48.912;8.380;2022-07-23T14:23:02;34.50;35.80
28087;DHT22;15392;48.912;8.380;2022-07-23T14:25:29;34.50;35.90
28087;DHT22;15392;48.912;8.380;2022-07-23T14:27:54;34.50;35.90
28087;DHT22;15392;48.912;8.380;2022-07-23T14:30:20;34.50;35.70
28087;DHT22;15392;48.912;8.380;2022-07-23T14:32:48;34.50;35.70
28087;DHT22;15392;48.912;8.380;2022-07-23T14:35:14;34.60;35.80
28087;DHT22;15392;48.912;8.380;2022-07-23T14:37:40;34.60;35.60
28087;DHT22;15392;48.912;8.380;2022-07-23T14:40:06;34.60;35.60
28087;DHT22;15392;48.912;8.380;2022-07-23T14:42:32;34.70;35.40
28087;DHT22;15392;48.912;8.380;2022-07-23T14:44:58;34.60;35.30
28087;DHT22;15392;48.912;8.380;2022-07-23T14:47:26;34.70;35.40
28087;DHT22;15392;48.912;8.380;2022-07-23T14:49:55;34.60;34.90
28087;DHT22;15392;48.912;8.380;2022-07-23T14:52:26;34.60;35.30
28087;DHT22;15392;48.912;8.380;2022-07-23T14:54:59;34.60;35.40
28087;DHT22;15392;48.912;8.380;2022-07-23T14:57:25;34.60;35.40
28087;DHT22;15392;48.912;8.380;2022-07-23T14:59:51;34.60;35.20
28087;DHT22;15392;48.912;8.380;2022-07-23T15:02:19;34.60;35.00
28087;DHT22;15392;48.912;8.380;2022-07-23T15:04:56;34.60;35.10
28087;DHT22;15392;48.912;8.380;2022-07-23T15:07:29;34.50;35.20
28087;DHT22;15392;48.912;8.380;2022-07-23T15:09:56;34.50;35.20
28087;DHT22;15392;48.912;8.380;2022-07-23T15:12:23;34.50;35.10
28087;DHT22;15392;48.912;8.380;2022-07-23T15:14:52;34.50;35.20
28087;DHT22;15392;48.912;8.380;2022-07-23T15:17:21;34.50;35.10
28087;DHT22;15392;48.912;8.380;2022-07-23T15:19:47;34.50;35.30
28087;DHT22;15392;48.912;8.380;2022-07-23T15:22:13;34.50;35.50
28087;DHT22;15392;48.912;8.380;2022-07-23T15:24:39;34.40;35.40
28087;DHT22;15392;48.912;8.380;2022-07-23T15:27:04;34.40;35.30
28087;DHT22;15392;48.912;8.380;2022-07-23T15:29:30;34.40;35.20
28087;DHT22;15392;48.912;8.380;2022-07-23T15:31:56;34.50;35.30
28087;DHT22;15392;48.912;8.380;2022-07-23T15:34:22;34.50;35.20
28087;DHT22;15392;48.912;8.380;2022-07-23T15:36:48;34.40;35.20
28087;DHT22;15392;48.912;8.380;2022-07-23T15:39:21;34.40;35.30
28087;DHT22;15392;48.912;8.380;2022-07-23T15:41:47;34.40;35.20
28087;DHT22;15392;48.912;8.380;2022-07-23T15:44:12;34.40;35.20
28087;DHT22;15392;48.912;8.380;2022-07-23T15:46:38;34.40;35.10
28087;DHT22;15392;48.912;8.380;2022-07-23T15:49:04;34.40;35.10
28087;DHT22;15392;48.912;8.380;2022-07-23T15:51:33;34.40;35.30
28087;DHT22;15392;48.912;8.380;2022-07-23T15:53:59;34.40;35.00
28087;DHT22;15392;48.912;8.380;2022-07-23T15:56:26;34.40;35.80
28087;DHT22;15392;48.912;8.380;2022-07-23T15:58:52;34.30;35.00
28087;DHT22;15392;48.912;8.380;2022-07-23T16:01:20;34.30;35.00
28087;DHT22;15392;48.912;8.380;2022-07-23T16:03:46;34.30;35.10
28087;DHT22;15392;48.912;8.380;2022-07-23T16:06:12;34.20;34.90
28087;DHT22;15392;48.912;8.380;2022-07-23T16:08:39;34.30;35.10
28087;DHT22;15392;48.912;8.380;2022-07-23T16:11:05;34.20;35.20
28087;DHT22;15392;48.912;8.380;2022-07-23T16:13:31;34.20;35.00